createdAt,value
2022-10-23T00:00:45.977Z,1.73
2022-10-23T00:01:47.449Z,2.22
2022-10-23T00:02:52.547Z,2.15
2022-10-23T00:03:56.077Z,2.40
2022-10-23T00:04:57.859Z,2.55
2022-10-23T00:05:59.300Z,3.05
2022-10-23T00:07:00.735Z,2.45
2022-10-23T00:08:02.147Z,3.15
2022-10-23T00:09:05.937Z,3.58
2022-10-23T00:10:09.624Z,3.75
2022-10-23T00:11:13.845Z,3.30
2022-10-23T00:12:15.313Z,3.03
2022-10-23T00:13:16.744Z,3.20
2022-10-23T00:14:19.485Z,2.20
2022-10-23T00:15:23.561Z,1.95
2022-10-23T00:16:25.122Z,2.08
2022-10-23T00:17:26.577Z,1.80
2022-10-23T00:18:28.061Z,1.90
2022-10-23T00:19:29.551Z,2.20
2022-10-23T00:20:31.020Z,2.20
2022-10-23T00:21:32.535Z,2.58
2022-10-23T00:22:34.890Z,2.10
2022-10-23T00:23:36.349Z,2.53
2022-10-23T00:24:37.821Z,2.20
2022-10-23T00:25:39.316Z,2.40
2022-10-23T00:26:41.054Z,2.10
2022-10-23T00:27:42.796Z,2.65
2022-10-23T00:28:46.015Z,2.40
2022-10-23T00:29:47.474Z,2.30
2022-10-23T00:30:50.248Z,2.85
2022-10-23T00:31:51.694Z,3.22
2022-10-23T00:32:53.127Z,2.30
2022-10-23T00:33:54.568Z,2.22
2022-10-23T00:34:55.986Z,2.08
2022-10-23T00:35:57.453Z,1.75
2022-10-23T00:36:58.907Z,1.83
2022-10-23T00:38:00.343Z,2.25
2022-10-23T00:39:01.839Z,1.90
2022-10-23T00:40:04.009Z,1.90
2022-10-23T00:41:07.187Z,1.92
2022-10-23T00:42:10.629Z,2.03
2022-10-23T00:43:18.285Z,2.00
2022-10-23T00:44:57.255Z,2.17
2022-10-23T00:46:00.487Z,2.22
2022-10-23T00:47:02.021Z,2.50
2022-10-23T00:48:04.303Z,2.65
2022-10-23T00:49:07.708Z,2.60
2022-10-23T00:50:09.276Z,2.97
2022-10-23T00:51:10.691Z,2.67
2022-10-23T00:52:13.697Z,2.47
2022-10-23T00:53:16.655Z,2.30
2022-10-23T00:54:24.419Z,2.78
2022-10-23T00:55:27.767Z,2.50
2022-10-23T00:56:31.227Z,2.55
2022-10-23T00:57:32.687Z,2.40
2022-10-23T00:58:34.128Z,2.97
2022-10-23T00:59:35.816Z,3.00
2022-10-23T01:00:43.979Z,3.13
2022-10-23T01:01:46.972Z,2.30
2022-10-23T01:02:48.652Z,2.67
2022-10-23T01:03:51.099Z,2.67
2022-10-23T01:04:52.597Z,2.45
2022-10-23T01:06:08.028Z,2.53
2022-10-23T01:07:15.488Z,2.33
2022-10-23T01:08:23.207Z,2.47
2022-10-23T01:09:31.488Z,2.35
2022-10-23T01:10:40.728Z,2.45
2022-10-23T01:11:48.583Z,2.50
2022-10-23T01:12:55.343Z,2.33
2022-10-23T01:15:10.174Z,2.47
2022-10-23T01:16:17.787Z,2.50
2022-10-23T01:17:27.920Z,2.67
2022-10-23T01:18:36.793Z,2.60
2022-10-23T01:19:50.994Z,2.65
2022-10-23T01:20:59.739Z,2.75
2022-10-23T01:22:12.920Z,3.15
2022-10-23T01:23:47.575Z,3.28
2022-10-23T01:24:56.475Z,3.58
2022-10-23T01:26:23.742Z,2.85
2022-10-23T01:27:31.519Z,3.35
2022-10-23T01:28:39.547Z,3.58
2022-10-23T01:29:45.814Z,3.70
2022-10-23T01:30:48.395Z,3.30
2022-10-23T01:31:53.798Z,3.47
2022-10-23T01:33:01.579Z,3.53
2022-10-23T01:34:08.613Z,3.60
2022-10-23T01:35:13.994Z,3.08
2022-10-23T01:36:20.489Z,2.70
2022-10-23T01:37:28.351Z,2.90
2022-10-23T01:38:38.831Z,3.15
2022-10-23T01:39:47.005Z,3.33
2022-10-23T01:40:54.647Z,3.05
2022-10-23T01:42:03.870Z,3.95
2022-10-23T01:43:12.683Z,3.72
2022-10-23T01:44:20.045Z,3.85
2022-10-23T01:45:25.493Z,3.97
2022-10-23T01:46:28.218Z,3.97
2022-10-23T01:47:34.122Z,4.00
2022-10-23T01:48:37.084Z,3.92
2022-10-23T01:49:41.722Z,4.32
2022-10-23T01:50:45.111Z,4.20
2022-10-23T01:51:51.496Z,4.30
2022-10-23T01:52:52.966Z,4.40
2022-10-23T01:53:57.728Z,4.10
2022-10-23T01:55:01.436Z,4.35
2022-10-23T01:56:07.208Z,3.78
2022-10-23T01:57:10.982Z,4.20
2022-10-23T01:58:16.275Z,4.10
2022-10-23T01:59:22.370Z,3.60
2022-10-23T02:00:24.042Z,4.18
2022-10-23T02:01:29.884Z,5.20
2022-10-23T02:02:33.521Z,5.20
2022-10-23T02:03:37.058Z,5.78
2022-10-23T02:04:45.697Z,6.07
2022-10-23T02:05:47.149Z,6.57
2022-10-23T02:06:48.634Z,6.00
2022-10-23T02:07:51.003Z,6.50
2022-10-23T02:08:52.548Z,7.18
2022-10-23T02:09:54.161Z,7.03
2022-10-23T02:11:04.515Z,7.40
2022-10-23T02:12:09.296Z,7.65
2022-10-23T02:13:16.725Z,9.10
2022-10-23T02:14:24.415Z,8.20
2022-10-23T02:15:30.706Z,8.52
2022-10-23T02:16:39.340Z,9.80
2022-10-23T02:17:50.296Z,11.55
2022-10-23T02:18:59.435Z,8.23
2022-10-23T02:20:14.483Z,9.40
2022-10-23T02:21:22.238Z,9.15
2022-10-23T02:22:28.672Z,8.23
2022-10-23T02:23:35.283Z,11.10
2022-10-23T02:24:43.416Z,9.48
2022-10-23T02:25:51.310Z,9.38
2022-10-23T02:26:55.188Z,11.45
2022-10-23T02:28:01.054Z,11.70
2022-10-23T02:29:09.202Z,10.95
2022-10-23T02:30:12.614Z,8.35
2022-10-23T02:31:18.730Z,7.47
2022-10-23T02:32:23.481Z,9.55
2022-10-23T02:33:27.174Z,8.45
2022-10-23T02:34:28.712Z,12.07
2022-10-23T02:35:30.396Z,12.10
2022-10-23T02:36:32.439Z,12.07
2022-10-23T02:37:33.884Z,11.75
2022-10-23T02:38:37.217Z,16.38
2022-10-23T02:39:39.277Z,12.60
2022-10-23T02:40:44.087Z,11.70
2022-10-23T02:41:51.037Z,11.25
2022-10-23T02:42:57.955Z,11.85
2022-10-23T02:44:15.604Z,11.70
2022-10-23T02:45:23.981Z,13.23
2022-10-23T02:46:31.930Z,13.65
2022-10-23T02:47:44.540Z,13.25
2022-10-23T02:48:55.596Z,14.23
2022-10-23T02:50:05.427Z,14.30
2022-10-23T02:51:11.961Z,14.73
2022-10-23T02:52:19.889Z,15.23
2022-10-23T02:53:31.812Z,19.95
2022-10-23T02:54:58.868Z,14.52
2022-10-23T02:56:06.855Z,11.48
2022-10-23T02:57:18.876Z,13.82
2022-10-23T02:58:26.854Z,13.27
2022-10-23T02:59:36.948Z,14.45
2022-10-23T03:00:44.738Z,13.40
2022-10-23T03:01:52.548Z,14.57
2022-10-23T03:02:57.880Z,12.52
2022-10-23T03:04:02.920Z,12.77
2022-10-23T03:05:08.475Z,13.25
2022-10-23T03:06:09.982Z,14.20
2022-10-23T03:07:13.570Z,14.40
2022-10-23T03:08:15.358Z,14.32
2022-10-23T03:09:17.511Z,15.55
2022-10-23T03:10:19.003Z,11.88
2022-10-23T03:11:20.804Z,12.65
2022-10-23T03:12:24.717Z,14.45
2022-10-23T03:13:26.316Z,7.20
2022-10-23T03:14:27.733Z,11.55
2022-10-23T03:15:30.503Z,10.30
2022-10-23T03:16:32.084Z,7.43
2022-10-23T03:17:33.585Z,7.28
2022-10-23T03:18:35.213Z,7.70
2022-10-23T03:19:36.680Z,7.78
2022-10-23T03:20:38.109Z,8.55
2022-10-23T03:21:39.596Z,13.98
2022-10-23T03:22:41.385Z,14.38
2022-10-23T03:23:43.144Z,16.55
2022-10-23T03:24:44.662Z,15.30
2022-10-23T03:25:46.172Z,12.73
2022-10-23T03:26:47.600Z,12.82
2022-10-23T03:27:49.027Z,16.15
2022-10-23T03:28:50.454Z,12.15
2022-10-23T03:29:51.895Z,13.45
2022-10-23T03:30:54.745Z,14.57
2022-10-23T03:31:56.161Z,14.32
2022-10-23T03:32:57.732Z,15.32
2022-10-23T03:33:59.145Z,14.48
2022-10-23T03:35:00.614Z,17.67
2022-10-23T03:36:02.079Z,17.27
2022-10-23T03:37:03.528Z,16.95
2022-10-23T03:38:05.000Z,15.10
2022-10-23T03:39:06.425Z,14.48
2022-10-23T03:40:09.202Z,11.02
2022-10-23T03:41:10.767Z,14.82
2022-10-23T03:42:12.175Z,14.07
2022-10-23T03:43:13.646Z,15.68
2022-10-23T03:44:15.085Z,16.33
2022-10-23T03:45:16.745Z,15.57
2022-10-23T03:46:19.537Z,15.63
2022-10-23T03:47:20.947Z,14.88
2022-10-23T03:48:22.446Z,15.05
2022-10-23T03:49:23.852Z,14.65
2022-10-23T03:50:25.416Z,13.70
2022-10-23T03:51:26.947Z,14.25
2022-10-23T03:52:28.402Z,14.07
2022-10-23T03:53:29.840Z,12.95
2022-10-23T03:54:31.483Z,11.68
2022-10-23T03:55:32.923Z,13.02
2022-10-23T03:56:34.469Z,13.73
2022-10-23T03:57:36.227Z,10.55
2022-10-23T03:58:37.718Z,11.98
2022-10-23T03:59:39.228Z,11.98
2022-10-23T04:00:41.082Z,8.55
2022-10-23T04:01:44.482Z,8.25
2022-10-23T04:02:46.632Z,6.25
2022-10-23T04:03:48.219Z,7.60
2022-10-23T04:04:49.792Z,7.85
2022-10-23T04:05:52.324Z,7.18
2022-10-23T04:06:53.945Z,4.78
2022-10-23T04:07:55.430Z,4.90
2022-10-23T04:08:56.895Z,4.57
2022-10-23T04:09:58.318Z,3.80
2022-10-23T04:10:59.887Z,4.45
2022-10-23T04:12:01.336Z,3.80
2022-10-23T04:13:02.766Z,5.10
2022-10-23T04:14:04.263Z,3.58
2022-10-23T04:15:06.438Z,5.03
2022-10-23T04:16:07.934Z,5.65
2022-10-23T04:17:10.724Z,5.90
2022-10-23T04:18:12.126Z,6.78
2022-10-23T04:19:13.611Z,6.72
2022-10-23T04:20:15.096Z,12.82
2022-10-23T04:21:16.799Z,9.30
2022-10-23T04:22:18.295Z,7.80
2022-10-23T04:23:20.129Z,5.22
2022-10-23T04:24:21.566Z,6.72
2022-10-23T04:25:23.037Z,10.55
2022-10-23T04:26:24.604Z,7.43
2022-10-23T04:27:26.003Z,5.35
2022-10-23T04:28:28.024Z,5.20
2022-10-23T04:29:29.502Z,5.80
2022-10-23T04:30:30.908Z,5.45
2022-10-23T04:31:32.348Z,6.18
2022-10-23T04:32:35.222Z,5.82
2022-10-23T04:33:36.701Z,4.20
2022-10-23T04:34:38.103Z,4.82
2022-10-23T04:35:39.533Z,5.63
2022-10-23T04:36:41.184Z,5.68
2022-10-23T04:37:42.960Z,6.63
2022-10-23T04:38:44.620Z,9.40
2022-10-23T04:39:46.112Z,15.80
2022-10-23T04:40:47.535Z,24.17
2022-10-23T04:41:48.951Z,25.90
2022-10-23T04:42:50.339Z,27.83
2022-10-23T04:43:51.795Z,23.77
2022-10-23T04:44:53.209Z,24.17
2022-10-23T04:45:54.616Z,25.30
2022-10-23T04:46:56.086Z,14.52
2022-10-23T04:47:58.994Z,8.98
2022-10-23T04:49:00.384Z,8.88
2022-10-23T04:50:01.898Z,9.98
2022-10-23T04:51:05.586Z,10.55
2022-10-23T04:52:07.071Z,12.50
2022-10-23T04:53:08.919Z,10.75
2022-10-23T04:54:10.429Z,14.05
2022-10-23T04:55:12.053Z,16.30
2022-10-23T04:56:14.126Z,19.50
2022-10-23T04:57:15.589Z,18.13
2022-10-23T04:58:17.132Z,17.08
2022-10-23T04:59:18.588Z,16.15
2022-10-23T05:00:20.219Z,18.40
2022-10-23T05:01:21.773Z,23.67
2022-10-23T05:02:23.294Z,31.95
2022-10-23T05:03:26.758Z,27.67
2022-10-23T05:04:28.180Z,25.55
2022-10-23T05:05:29.606Z,27.15
2022-10-23T05:06:31.064Z,26.38
2022-10-23T05:07:32.659Z,25.65
2022-10-23T05:08:34.172Z,25.42
2022-10-23T05:09:35.578Z,27.70
2022-10-23T05:10:37.382Z,24.73
2022-10-23T05:11:38.803Z,25.27
2022-10-23T05:12:40.221Z,24.90
2022-10-23T05:13:41.636Z,20.75
2022-10-23T05:14:43.054Z,24.08
2022-10-23T05:15:44.490Z,24.98
2022-10-23T05:16:50.374Z,22.95
2022-10-23T05:17:55.669Z,25.02
2022-10-23T05:18:59.076Z,26.85
2022-10-23T05:20:03.821Z,23.55
2022-10-23T05:21:10.109Z,26.17
2022-10-23T05:22:12.715Z,24.17
2022-10-23T05:23:16.308Z,25.48
2022-10-23T05:24:17.822Z,27.23
2022-10-23T05:25:19.267Z,28.13
2022-10-23T05:26:21.250Z,27.02
2022-10-23T05:27:22.750Z,28.52
2022-10-23T05:28:24.233Z,32.20
2022-10-23T05:29:25.654Z,34.80
2022-10-23T05:30:27.375Z,33.53
2022-10-23T05:31:29.458Z,40.03
2022-10-23T05:32:32.076Z,37.38
2022-10-23T05:33:35.921Z,38.92
2022-10-23T05:34:39.862Z,35.15
2022-10-23T05:35:43.954Z,36.38
2022-10-23T05:36:45.953Z,31.88
2022-10-23T05:37:49.981Z,32.08
2022-10-23T05:38:51.837Z,37.97
2022-10-23T05:39:53.307Z,36.33
2022-10-23T05:40:55.096Z,35.67
2022-10-23T05:41:56.502Z,35.55
2022-10-23T05:42:57.980Z,36.60
2022-10-23T05:43:59.427Z,36.85
2022-10-23T05:45:00.887Z,32.70
2022-10-23T05:46:04.373Z,35.85
2022-10-23T05:47:06.896Z,33.97
2022-10-23T05:48:11.336Z,41.65
2022-10-23T05:49:24.407Z,36.20
2022-10-23T05:50:27.221Z,33.55
2022-10-23T05:51:28.672Z,33.42
2022-10-23T05:52:30.101Z,29.67
2022-10-23T05:53:31.568Z,30.25
2022-10-23T05:54:32.991Z,25.02
2022-10-23T05:55:34.456Z,31.42
2022-10-23T05:56:37.381Z,33.92
2022-10-23T05:57:38.796Z,27.42
2022-10-23T05:58:40.208Z,25.83
2022-10-23T05:59:41.669Z,32.90
2022-10-23T06:00:43.110Z,33.50
2022-10-23T06:01:44.606Z,20.38
2022-10-23T06:02:46.068Z,21.25
2022-10-23T06:03:47.494Z,21.80
2022-10-23T06:04:48.918Z,20.88
2022-10-23T06:05:52.124Z,32.25
2022-10-23T06:06:53.530Z,35.67
2022-10-23T06:07:58.183Z,32.97
2022-10-23T06:08:59.614Z,34.05
2022-10-23T06:10:01.101Z,36.85
2022-10-23T06:11:07.511Z,29.88
2022-10-23T06:12:08.958Z,23.98
2022-10-23T06:13:10.463Z,23.90
2022-10-23T06:14:11.887Z,21.10
2022-10-23T06:15:13.367Z,19.98
2022-10-23T06:16:16.605Z,22.52
2022-10-23T06:17:18.012Z,22.65
2022-10-23T06:18:19.425Z,19.80
2022-10-23T06:19:20.835Z,23.30
2022-10-23T06:20:26.544Z,23.70
2022-10-23T06:21:31.532Z,26.60
2022-10-23T06:22:33.585Z,22.58
2022-10-23T06:23:37.025Z,24.33
2022-10-23T06:24:38.423Z,21.10
2022-10-23T06:25:39.830Z,17.27
2022-10-23T06:26:41.219Z,18.83
2022-10-23T06:27:42.609Z,15.73
2022-10-23T06:28:44.111Z,16.05
2022-10-23T06:29:45.565Z,15.70
2022-10-23T06:30:47.003Z,14.85
2022-10-23T06:31:48.451Z,14.25
2022-10-23T06:32:50.103Z,14.52
2022-10-23T06:33:51.533Z,14.05
2022-10-23T06:34:52.974Z,14.10
2022-10-23T06:35:55.797Z,12.98
2022-10-23T06:36:58.590Z,13.23
2022-10-23T06:38:00.047Z,12.27
2022-10-23T06:39:01.530Z,12.10
2022-10-23T06:40:03.399Z,11.75
2022-10-23T06:41:06.243Z,12.20
2022-10-23T06:42:07.699Z,12.48
2022-10-23T06:43:09.110Z,11.75
2022-10-23T06:44:10.538Z,10.98
2022-10-23T06:45:11.975Z,10.52
2022-10-23T06:46:13.402Z,10.35
2022-10-23T06:47:14.831Z,10.80
2022-10-23T06:48:16.564Z,10.18
2022-10-23T06:49:18.042Z,10.05
2022-10-23T06:50:19.483Z,9.63
2022-10-23T06:51:20.943Z,9.23
2022-10-23T06:52:42.048Z,6.43
2022-10-23T06:53:45.335Z,5.47
2022-10-23T06:54:46.728Z,4.82
2022-10-23T06:55:50.209Z,4.60
2022-10-23T06:56:54.490Z,4.78
2022-10-23T06:57:55.911Z,4.90
2022-10-23T06:58:57.354Z,5.20
2022-10-23T06:59:58.777Z,5.50
2022-10-23T07:01:00.699Z,5.68
2022-10-23T07:02:02.769Z,7.07
2022-10-23T07:03:04.808Z,8.43
2022-10-23T07:04:06.270Z,8.25
2022-10-23T07:05:11.264Z,9.18
2022-10-23T07:06:15.451Z,8.32
2022-10-23T07:07:16.968Z,8.43
2022-10-23T07:08:19.768Z,8.45
2022-10-23T07:09:21.212Z,8.80
2022-10-23T07:10:22.961Z,8.77
2022-10-23T07:11:24.375Z,9.65
2022-10-23T07:12:25.791Z,9.85
2022-10-23T07:13:27.230Z,9.18
2022-10-23T07:14:28.701Z,8.80
2022-10-23T07:15:30.333Z,9.20
2022-10-23T07:16:31.811Z,9.23
2022-10-23T07:17:33.224Z,9.13
2022-10-23T07:19:40.975Z,5.90
2022-10-23T07:20:43.019Z,5.53
2022-10-23T07:21:44.416Z,5.75
2022-10-23T07:22:51.026Z,5.82
2022-10-23T07:23:53.779Z,5.28
2022-10-23T07:24:55.179Z,5.15
2022-10-23T07:26:02.097Z,5.28
2022-10-23T07:27:04.349Z,5.85
2022-10-23T07:28:05.764Z,5.32
2022-10-23T07:29:07.517Z,5.20
2022-10-23T07:30:10.154Z,5.50
2022-10-23T07:31:12.145Z,5.82
2022-10-23T07:32:13.585Z,6.97
2022-10-23T07:33:15.033Z,6.78
2022-10-23T07:34:16.444Z,7.72
2022-10-23T07:35:18.120Z,6.57
2022-10-23T07:36:19.670Z,6.35
2022-10-23T07:37:21.061Z,6.75
2022-10-23T07:38:22.515Z,6.32
2022-10-23T07:39:25.613Z,6.35
2022-10-23T07:40:27.004Z,6.30
2022-10-23T07:41:28.445Z,6.72
2022-10-23T07:42:29.864Z,6.60
2022-10-23T07:44:33.683Z,6.25
2022-10-23T07:45:35.129Z,6.07
2022-10-23T07:46:36.547Z,3.70
2022-10-23T07:47:38.348Z,3.30
2022-10-23T07:48:40.229Z,3.58
2022-10-23T07:49:41.698Z,3.25
2022-10-23T07:50:43.205Z,3.45
2022-10-23T07:51:48.938Z,3.53
2022-10-23T07:52:52.769Z,3.40
2022-10-23T07:53:54.188Z,3.53
2022-10-23T07:54:56.928Z,3.50
2022-10-23T07:56:00.787Z,3.75
2022-10-23T07:57:02.215Z,3.90
2022-10-23T07:58:03.633Z,3.97
2022-10-23T07:59:05.155Z,3.80
2022-10-23T08:00:07.833Z,3.60
2022-10-23T08:01:17.189Z,3.65
2022-10-23T08:02:18.697Z,3.92
2022-10-23T08:03:20.305Z,3.78
2022-10-23T08:04:21.979Z,3.78
2022-10-23T08:05:23.456Z,3.20
2022-10-23T08:06:25.203Z,3.10
2022-10-23T08:07:26.619Z,3.20
2022-10-23T08:08:28.029Z,3.40
2022-10-23T08:09:29.499Z,3.08
2022-10-23T08:10:32.260Z,3.17
2022-10-23T08:11:34.296Z,2.70
2022-10-23T08:12:37.280Z,2.90
2022-10-23T08:13:38.705Z,2.97
2022-10-23T08:14:40.195Z,3.13
2022-10-23T08:15:43.013Z,3.13
2022-10-23T08:16:44.463Z,3.10
2022-10-23T08:17:46.124Z,4.60
2022-10-23T08:18:47.581Z,4.38
2022-10-23T08:19:49.042Z,5.13
2022-10-23T08:20:50.529Z,4.97
2022-10-23T08:21:51.998Z,4.40
2022-10-23T08:22:53.457Z,4.72
2022-10-23T08:23:56.164Z,4.72
2022-10-23T08:24:57.571Z,5.00
2022-10-23T08:26:01.989Z,5.03
2022-10-23T08:27:03.883Z,5.00
2022-10-23T08:28:06.497Z,4.20
2022-10-23T08:29:07.969Z,4.60
2022-10-23T08:30:10.519Z,4.38
2022-10-23T08:31:14.384Z,4.25
2022-10-23T08:32:15.873Z,4.65
2022-10-23T08:33:17.289Z,4.57
2022-10-23T08:34:18.716Z,4.53
2022-10-23T08:35:20.231Z,4.07
2022-10-23T08:36:23.760Z,4.10
2022-10-23T08:37:25.171Z,3.95
2022-10-23T08:38:26.612Z,2.88
2022-10-23T08:39:28.046Z,2.60
2022-10-23T08:40:29.478Z,2.72
2022-10-23T08:41:35.108Z,2.50
2022-10-23T08:42:39.312Z,3.45
2022-10-23T08:43:46.678Z,2.85
2022-10-23T08:44:56.995Z,2.63
2022-10-23T08:46:06.173Z,2.47
2022-10-23T08:47:14.873Z,2.17
2022-10-23T08:48:21.357Z,2.35
2022-10-23T08:49:34.011Z,2.10
2022-10-23T08:50:40.836Z,2.10
2022-10-23T08:51:46.648Z,2.00
2022-10-23T08:52:52.073Z,1.95
2022-10-23T08:53:59.254Z,2.05
2022-10-23T08:55:10.844Z,1.90
2022-10-23T08:56:18.159Z,2.30
2022-10-23T08:57:23.725Z,2.00
2022-10-23T08:58:34.222Z,2.05
2022-10-23T08:59:42.919Z,2.20
2022-10-23T09:00:50.155Z,2.00
2022-10-23T09:01:58.082Z,2.30
2022-10-23T09:03:02.602Z,1.92
2022-10-23T09:04:05.119Z,1.88
2022-10-23T09:05:13.605Z,2.20
2022-10-23T09:06:25.127Z,1.83
2022-10-23T09:07:38.465Z,1.80
2022-10-23T09:08:46.925Z,1.60
2022-10-23T09:10:01.566Z,1.63
2022-10-23T09:11:08.048Z,1.95
2022-10-23T09:12:13.067Z,1.42
2022-10-23T09:13:40.143Z,1.70
2022-10-23T09:15:02.421Z,2.08
2022-10-23T09:16:15.116Z,1.80
2022-10-23T09:17:24.273Z,1.42
2022-10-23T09:18:26.102Z,1.60
2022-10-23T09:19:27.977Z,1.60
2022-10-23T09:20:32.812Z,1.70
2022-10-23T09:21:35.794Z,1.73
2022-10-23T09:22:37.294Z,1.30
2022-10-23T09:23:38.734Z,1.75
2022-10-23T09:24:42.996Z,1.65
2022-10-23T09:25:45.938Z,1.50
2022-10-23T09:26:48.826Z,1.10
2022-10-23T09:27:54.977Z,2.42
2022-10-23T09:29:14.058Z,2.80
2022-10-23T09:30:29.092Z,3.00
2022-10-23T09:31:30.520Z,3.40
2022-10-23T09:32:33.953Z,3.30
2022-10-23T09:33:35.499Z,2.58
2022-10-23T09:34:36.948Z,2.80
2022-10-23T09:35:38.372Z,2.53
2022-10-23T09:36:49.828Z,2.55
2022-10-23T09:37:51.819Z,2.40
2022-10-23T09:38:54.590Z,1.25
2022-10-23T09:40:14.307Z,1.75
2022-10-23T09:41:19.255Z,1.20
2022-10-23T09:42:23.632Z,1.20
2022-10-23T09:43:25.081Z,1.27
2022-10-23T09:44:30.460Z,1.40
2022-10-23T09:45:34.221Z,1.30
2022-10-23T09:46:39.898Z,1.65
2022-10-23T09:47:42.155Z,1.50
2022-10-23T09:48:43.808Z,1.75
2022-10-23T09:49:48.148Z,1.77
2022-10-23T09:50:51.796Z,1.80
2022-10-23T09:51:59.588Z,1.60
2022-10-23T09:53:01.093Z,1.40
2022-10-23T09:54:02.556Z,1.50
2022-10-23T09:55:19.866Z,1.50
2022-10-23T09:56:26.464Z,1.35
2022-10-23T09:57:32.112Z,1.80
2022-10-23T09:58:36.314Z,1.52
2022-10-23T09:59:40.336Z,1.58
2022-10-23T10:00:47.235Z,1.70
2022-10-23T10:01:51.756Z,1.90
2022-10-23T10:02:58.910Z,2.17
2022-10-23T10:04:00.347Z,2.08
2022-10-23T10:05:22.461Z,2.00
2022-10-23T10:06:26.258Z,1.30
2022-10-23T10:07:33.415Z,1.70
2022-10-23T10:08:42.678Z,1.52
2022-10-23T10:09:44.145Z,1.42
2022-10-23T10:10:52.080Z,1.80
2022-10-23T10:11:55.783Z,1.70
2022-10-23T10:13:00.706Z,1.70
2022-10-23T10:14:26.869Z,1.50
2022-10-23T10:15:35.325Z,1.30
2022-10-23T10:16:44.175Z,1.30
2022-10-23T10:17:57.266Z,1.38
2022-10-23T10:19:05.866Z,1.38
2022-10-23T10:20:23.583Z,1.60
2022-10-23T10:21:28.499Z,1.20
2022-10-23T10:22:35.497Z,1.35
2022-10-23T10:23:46.440Z,1.35
2022-10-23T10:24:53.214Z,1.23
2022-10-23T10:26:03.057Z,1.30
2022-10-23T10:27:14.061Z,1.45
2022-10-23T10:28:30.938Z,1.38
2022-10-23T10:29:52.400Z,1.27
2022-10-23T10:31:08.791Z,1.70
2022-10-23T10:32:27.002Z,1.75
2022-10-23T10:33:35.692Z,1.77
2022-10-23T10:34:46.047Z,1.70
2022-10-23T10:35:55.063Z,1.42
2022-10-23T10:37:05.824Z,1.50
2022-10-23T10:38:31.549Z,1.70
2022-10-23T10:39:40.835Z,1.60
2022-10-23T10:40:47.594Z,1.55
2022-10-23T10:42:16.571Z,1.50
2022-10-23T10:43:29.050Z,1.20
2022-10-23T10:44:50.516Z,1.75
2022-10-23T10:46:02.886Z,1.50
2022-10-23T10:47:15.883Z,1.23
2022-10-23T10:48:40.902Z,1.30
2022-10-23T10:49:48.028Z,1.40
2022-10-23T10:50:54.219Z,1.35
2022-10-23T10:52:04.299Z,1.30
2022-10-23T10:53:14.904Z,1.42
2022-10-23T10:54:27.665Z,1.50
2022-10-23T10:55:34.932Z,1.60
2022-10-23T10:56:41.546Z,1.60
2022-10-23T10:57:47.318Z,1.85
2022-10-23T10:58:52.922Z,1.60
2022-10-23T10:59:58.816Z,2.00
2022-10-23T11:01:08.357Z,1.70
2022-10-23T11:02:26.517Z,2.03
2022-10-23T11:03:37.581Z,2.00
2022-10-23T11:04:47.370Z,2.30
2022-10-23T11:05:51.545Z,2.20
2022-10-23T11:06:55.302Z,2.15
2022-10-23T11:07:59.879Z,2.40
2022-10-23T11:09:20.373Z,2.20
2022-10-23T11:10:22.434Z,2.42
2022-10-23T11:11:31.295Z,2.33
2022-10-23T11:12:32.872Z,2.60
2022-10-23T11:13:36.950Z,2.42
2022-10-23T11:14:38.399Z,2.60
2022-10-23T11:15:43.849Z,2.63
2022-10-23T11:16:50.321Z,2.67
2022-10-23T11:17:55.703Z,2.50
2022-10-23T11:19:07.500Z,3.00
2022-10-23T11:20:25.047Z,2.50
2022-10-23T11:21:34.736Z,3.28
2022-10-23T11:22:42.960Z,3.30
2022-10-23T11:24:07.596Z,3.05
2022-10-23T11:25:26.231Z,3.20
2022-10-23T11:26:39.390Z,3.28
2022-10-23T11:28:04.429Z,3.25
2022-10-23T11:29:40.222Z,3.00
2022-10-23T11:30:59.009Z,3.22
2022-10-23T11:32:19.941Z,2.60
2022-10-23T11:33:57.983Z,2.95
2022-10-23T11:35:21.360Z,2.95
2022-10-23T11:36:41.356Z,3.03
2022-10-23T11:37:43.079Z,3.58
2022-10-23T11:38:47.435Z,3.58
2022-10-23T11:40:17.042Z,2.80
2022-10-23T11:41:25.295Z,3.53
2022-10-23T11:42:32.866Z,3.03
2022-10-23T11:43:47.808Z,3.28
2022-10-23T11:44:50.461Z,3.08
2022-10-23T11:45:51.932Z,3.17
2022-10-23T11:47:01.459Z,3.40
2022-10-23T11:48:06.607Z,3.00
2022-10-23T11:49:20.845Z,3.50
2022-10-23T11:50:31.845Z,3.25
2022-10-23T11:51:35.190Z,3.60
2022-10-23T11:52:45.703Z,3.10
2022-10-23T11:53:52.284Z,3.05
2022-10-23T11:55:01.146Z,3.08
2022-10-23T11:56:05.220Z,2.97
2022-10-23T11:57:12.489Z,3.30
2022-10-23T11:58:25.252Z,3.42
2022-10-23T11:59:30.090Z,3.53
2022-10-23T12:00:33.346Z,17.98
2022-10-23T12:01:40.415Z,3.30
2022-10-23T12:02:43.222Z,1.63
2022-10-23T12:03:53.907Z,2.10
2022-10-23T12:04:55.824Z,2.50
2022-10-23T12:06:02.022Z,3.08
2022-10-23T12:07:16.287Z,2.80
2022-10-23T12:08:22.299Z,2.00
2022-10-23T12:09:27.479Z,2.30
2022-10-23T12:10:32.417Z,7.72
2022-10-23T12:11:44.185Z,1.92
2022-10-23T12:12:55.423Z,2.58
2022-10-23T12:13:56.914Z,2.85
2022-10-23T12:15:18.109Z,2.45
2022-10-23T12:16:19.577Z,2.00
2022-10-23T12:17:33.495Z,2.35
2022-10-23T12:18:45.829Z,1.95
2022-10-23T12:19:51.164Z,2.10
2022-10-23T12:20:56.293Z,2.33
2022-10-23T12:22:00.720Z,2.20
2022-10-23T12:23:15.691Z,2.22
2022-10-23T12:24:33.519Z,2.10
2022-10-23T12:25:45.760Z,2.08
2022-10-23T12:27:10.455Z,2.42
2022-10-23T12:28:34.287Z,1.83
2022-10-23T12:29:53.183Z,1.60
2022-10-23T12:31:07.381Z,2.13
2022-10-23T12:32:25.144Z,1.50
2022-10-23T12:33:32.501Z,2.05
2022-10-23T12:34:45.776Z,2.20
2022-10-23T12:36:13.729Z,2.30
2022-10-23T12:37:35.204Z,2.20
2022-10-23T12:38:44.555Z,2.60
2022-10-23T12:39:52.405Z,2.22
2022-10-23T12:40:56.570Z,2.70
2022-10-23T12:41:59.249Z,3.63
2022-10-23T12:43:01.470Z,2.83
2022-10-23T12:44:05.446Z,2.60
2022-10-23T12:45:17.253Z,2.83
2022-10-23T12:46:28.783Z,2.33
2022-10-23T12:47:30.712Z,2.70
2022-10-23T12:48:33.567Z,3.00
2022-10-23T12:49:35.001Z,3.28
2022-10-23T12:50:37.399Z,2.75
2022-10-23T12:51:40.381Z,2.40
2022-10-23T12:52:51.012Z,2.33
2022-10-23T12:53:52.693Z,2.67
2022-10-23T12:54:54.189Z,2.33
2022-10-23T12:55:57.843Z,2.58
2022-10-23T12:56:59.519Z,1.90
2022-10-23T12:58:00.968Z,2.20
2022-10-23T12:59:02.865Z,2.13
2022-10-23T13:00:10.675Z,2.13
2022-10-23T13:01:23.970Z,1.95
2022-10-23T13:02:27.109Z,2.13
2022-10-23T13:03:30.498Z,1.90
2022-10-23T13:04:34.576Z,2.10
2022-10-23T13:05:37.245Z,2.35
2022-10-23T13:06:40.483Z,2.15
2022-10-23T13:07:46.020Z,2.45
2022-10-23T13:08:48.003Z,8.18
2022-10-23T13:09:49.736Z,2.40
2022-10-23T13:10:51.236Z,2.08
2022-10-23T13:11:52.916Z,2.08
2022-10-23T13:12:59.358Z,2.10
2022-10-23T13:14:00.812Z,2.20
2022-10-23T13:15:15.769Z,2.35
2022-10-23T13:16:18.624Z,2.33
2022-10-23T13:17:20.054Z,2.63
2022-10-23T13:18:21.501Z,2.33
2022-10-23T13:19:23.991Z,2.10
2022-10-23T13:20:27.925Z,2.30
2022-10-23T13:21:29.912Z,2.65
2022-10-23T13:22:32.767Z,2.97
2022-10-23T13:23:35.794Z,2.60
2022-10-23T13:24:37.236Z,2.40
2022-10-23T13:25:39.761Z,2.58
2022-10-23T13:26:41.622Z,2.88
2022-10-23T13:27:43.450Z,3.65
2022-10-23T13:28:45.923Z,2.80
2022-10-23T13:29:47.412Z,2.53
2022-10-23T13:31:01.449Z,2.83
2022-10-23T13:32:10.192Z,3.20
2022-10-23T13:33:22.594Z,2.50
2022-10-23T13:34:26.524Z,2.67
2022-10-23T13:35:27.941Z,3.00
2022-10-23T13:36:30.851Z,3.05
2022-10-23T13:37:33.722Z,2.90
2022-10-23T13:38:37.547Z,2.75
2022-10-23T13:39:38.936Z,2.85
2022-10-23T13:40:40.382Z,2.72
2022-10-23T13:41:43.690Z,2.67
2022-10-23T13:42:47.773Z,2.38
2022-10-23T13:43:49.377Z,2.88
2022-10-23T13:44:50.797Z,2.55
2022-10-23T13:45:52.202Z,2.42
2022-10-23T13:46:53.597Z,2.85
2022-10-23T13:47:55.178Z,2.70
2022-10-23T13:48:56.640Z,3.03
2022-10-23T13:49:58.083Z,2.72
2022-10-23T13:51:10.888Z,2.60
2022-10-23T13:52:14.361Z,2.70
2022-10-23T13:53:17.392Z,2.40
2022-10-23T13:54:20.803Z,2.83
2022-10-23T13:55:24.237Z,2.78
2022-10-23T13:56:27.354Z,2.85
2022-10-23T13:57:28.775Z,2.50
2022-10-23T13:58:30.191Z,2.50
2022-10-23T13:59:31.630Z,3.00
2022-10-23T14:00:33.129Z,2.60
2022-10-23T14:01:35.319Z,2.75
2022-10-23T14:02:37.043Z,2.80
2022-10-23T14:03:38.520Z,2.85
2022-10-23T14:04:39.960Z,2.90
2022-10-23T14:05:41.404Z,2.95
2022-10-23T14:06:43.218Z,3.15
2022-10-23T14:07:44.911Z,3.17
2022-10-23T14:08:48.388Z,3.33
2022-10-23T14:09:50.634Z,3.28
2022-10-23T14:10:52.277Z,3.00
2022-10-23T14:11:53.696Z,3.17
2022-10-23T14:12:55.123Z,3.03
2022-10-23T14:13:56.508Z,3.00
2022-10-23T14:14:57.931Z,3.50
2022-10-23T14:15:59.379Z,3.00
2022-10-23T14:17:00.772Z,3.47
2022-10-23T14:18:07.331Z,3.63
2022-10-23T14:19:10.919Z,3.38
2022-10-23T14:20:13.015Z,3.65
2022-10-23T14:21:19.553Z,3.35